createdAt,value
2022-08-05T00:01:49.010Z,18.00
2022-08-05T00:06:53.327Z,17.85
2022-08-05T00:11:59.874Z,17.73
2022-08-05T00:17:04.299Z,17.68
2022-08-05T00:22:23.184Z,17.66
2022-08-05T00:27:35.624Z,17.51
2022-08-05T00:32:40.491Z,17.38
2022-08-05T00:37:52.645Z,17.37
2022-08-05T00:42:58.960Z,17.35
2022-08-05T00:48:05.623Z,17.31
2022-08-05T00:53:44.893Z,17.21
2022-08-05T00:58:33.726Z,17.10
2022-08-05T01:03:37.755Z,17.01
2022-08-05T01:08:44.613Z,16.89
2022-08-05T01:14:03.112Z,16.82
2022-08-05T01:20:00.770Z,16.78
2022-08-05T01:25:14.010Z,16.75
2022-08-05T01:30:19.296Z,16.75
2022-08-05T01:35:51.240Z,16.81
2022-08-05T01:40:59.367Z,16.83
2022-08-05T01:46:07.290Z,16.81
2022-08-05T01:51:23.799Z,16.76
2022-08-05T01:58:10.132Z,16.72
2022-08-05T02:02:00.571Z,16.80
2022-08-05T02:07:04.583Z,16.92
2022-08-05T02:12:12.589Z,17.07
2022-08-05T02:18:28.245Z,17.20
2022-08-05T02:22:51.760Z,17.26
2022-08-05T02:27:59.724Z,17.30
2022-08-05T02:33:05.148Z,17.28
2022-08-05T02:38:10.782Z,17.23
2022-08-05T02:43:24.548Z,17.21
2022-08-05T02:48:29.983Z,17.17
2022-08-05T02:53:39.512Z,17.09
2022-08-05T02:58:45.180Z,16.97
2022-08-05T03:04:02.143Z,16.88
2022-08-05T03:09:11.478Z,16.86
2022-08-05T03:14:19.784Z,16.97
2022-08-05T03:19:34.121Z,17.08
2022-08-05T03:24:38.903Z,17.15
2022-08-05T03:30:07.770Z,17.13
2022-08-05T03:35:13.878Z,17.08
2022-08-05T03:40:24.050Z,17.03
2022-08-05T03:45:58.137Z,17.01
2022-08-05T03:52:38.943Z,17.07
2022-08-05T03:56:35.141Z,17.14
2022-08-05T04:01:46.224Z,17.17
2022-08-05T04:06:53.396Z,17.14
2022-08-05T04:11:57.978Z,17.17
2022-08-05T04:17:03.138Z,17.24
2022-08-05T04:22:11.831Z,17.32
2022-08-05T04:27:33.221Z,17.43
2022-08-05T04:32:43.845Z,17.53
2022-08-05T04:38:02.540Z,17.64
2022-08-05T04:43:11.154Z,17.73
2022-08-05T04:48:27.364Z,17.76
2022-08-05T04:53:33.627Z,17.77
2022-08-05T04:58:39.215Z,17.82
2022-08-05T05:03:43.283Z,17.92
2022-08-05T05:08:50.132Z,18.03
2022-08-05T05:13:55.240Z,18.15
2022-08-05T05:19:19.042Z,18.25
2022-08-05T05:24:23.117Z,18.34
2022-08-05T05:30:04.869Z,18.45
2022-08-05T05:35:10.166Z,18.55
2022-08-05T05:40:26.105Z,18.69
2022-08-05T05:45:31.646Z,18.84
2022-08-05T05:50:43.986Z,18.99
2022-08-05T05:55:51.727Z,19.17
2022-08-05T06:01:15.241Z,19.41
2022-08-05T06:06:19.202Z,19.65
2022-08-05T06:11:26.649Z,19.85
2022-08-05T06:16:32.862Z,20.03
2022-08-05T06:21:42.246Z,20.22
2022-08-05T06:26:53.272Z,20.35
2022-08-05T06:31:56.917Z,20.45
2022-08-05T06:37:03.802Z,20.54
2022-08-05T06:42:08.232Z,20.67
2022-08-05T06:48:11.819Z,20.78
2022-08-05T06:52:36.599Z,20.87
2022-08-05T06:58:03.982Z,20.96
2022-08-05T07:03:07.542Z,21.05
2022-08-05T07:08:14.525Z,21.18
2022-08-05T07:13:57.196Z,21.30
2022-08-05T07:19:01.329Z,21.38
2022-08-05T07:24:11.203Z,21.47
2022-08-05T07:29:17.138Z,21.59
2022-08-05T07:34:21.489Z,21.70
2022-08-05T07:40:04.112Z,21.82
2022-08-05T07:44:56.103Z,21.95
2022-08-05T07:50:00.142Z,22.09
2022-08-05T07:55:44.619Z,22.29
2022-08-05T08:00:34.840Z,22.55
2022-08-05T08:05:39.488Z,22.79
2022-08-05T08:10:43.024Z,23.07
2022-08-05T08:16:34.309Z,23.38
2022-08-05T08:21:17.677Z,23.70
2022-08-05T08:26:29.530Z,24.03
2022-08-05T08:31:33.804Z,24.42
2022-08-05T08:36:47.349Z,24.81
2022-08-05T08:41:59.459Z,25.15
2022-08-05T08:47:22.295Z,25.48
2022-08-05T08:52:31.949Z,25.79
2022-08-05T08:57:48.162Z,25.97
2022-08-05T09:03:02.094Z,26.25
2022-08-05T09:08:07.947Z,26.53
2022-08-05T09:13:16.680Z,26.78
2022-08-05T09:18:21.562Z,26.98
2022-08-05T09:23:27.263Z,27.08
2022-08-05T09:28:42.183Z,27.17
2022-08-05T09:33:50.871Z,27.29
2022-08-05T09:38:59.881Z,27.39
2022-08-05T09:44:04.214Z,27.49
2022-08-05T09:49:24.193Z,27.54
2022-08-05T09:54:56.228Z,27.56
2022-08-05T10:00:05.980Z,27.58
2022-08-05T10:05:14.226Z,27.64
2022-08-05T10:10:19.892Z,27.67
2022-08-05T10:15:39.358Z,27.72
2022-08-05T10:20:48.573Z,27.76
2022-08-05T10:25:54.051Z,27.82
2022-08-05T10:32:48.584Z,27.89
2022-08-05T10:36:26.254Z,27.97
2022-08-05T10:41:45.185Z,28.10
2022-08-05T10:46:54.341Z,28.19
2022-08-05T10:52:00.446Z,28.30
2022-08-05T10:57:05.201Z,28.45
2022-08-05T11:02:14.776Z,28.54
2022-08-05T11:08:02.669Z,28.64
2022-08-05T11:13:30.997Z,28.75
2022-08-05T11:18:46.950Z,28.87
2022-08-05T11:24:05.536Z,29.05
2022-08-05T11:29:39.766Z,29.16
2022-08-05T11:34:51.502Z,29.20
2022-08-05T11:40:02.650Z,29.24
2022-08-05T11:45:23.374Z,29.33
2022-08-05T11:50:39.238Z,29.41
2022-08-05T11:55:55.206Z,29.48
2022-08-05T12:01:10.397Z,29.55
2022-08-05T12:06:16.505Z,29.61
2022-08-05T12:11:28.453Z,29.68
2022-08-05T12:16:46.789Z,29.78
2022-08-05T12:21:51.833Z,29.84
2022-08-05T12:27:09.728Z,29.92
2022-08-05T12:32:25.236Z,29.98
2022-08-05T12:37:30.347Z,30.03
2022-08-05T12:42:37.022Z,30.10
2022-08-05T12:47:43.572Z,30.17
2022-08-05T12:53:06.027Z,30.28
2022-08-05T12:58:50.395Z,30.45
2022-08-05T13:03:48.965Z,30.59
2022-08-05T13:08:55.655Z,30.76
2022-08-05T13:14:07.524Z,30.94
2022-08-05T13:19:14.036Z,31.07
2022-08-05T13:24:27.665Z,31.15
2022-08-05T13:30:31.497Z,31.20
2022-08-05T13:35:10.590Z,31.25
2022-08-05T13:40:35.685Z,31.35
2022-08-05T13:45:43.031Z,31.40
2022-08-05T13:50:47.347Z,31.42
2022-08-05T13:56:00.236Z,31.43
2022-08-05T14:01:06.574Z,31.45
2022-08-05T14:06:26.112Z,31.46
2022-08-05T14:11:31.266Z,31.44
2022-08-05T14:16:35.216Z,31.39
2022-08-05T14:22:09.021Z,31.32
2022-08-05T14:27:18.594Z,31.29
2022-08-05T14:32:27.100Z,31.27
2022-08-05T14:37:45.425Z,31.23
2022-08-05T14:42:52.350Z,31.23
2022-08-05T14:48:03.044Z,31.26
2022-08-05T14:53:12.260Z,31.24
2022-08-05T14:58:22.925Z,31.22
2022-08-05T15:03:33.728Z,31.25
2022-08-05T15:08:59.886Z,31.26
2022-08-05T15:14:07.359Z,31.25
2022-08-05T15:19:14.464Z,31.26
2022-08-05T15:24:27.534Z,31.28
2022-08-05T15:29:31.233Z,31.27
2022-08-05T15:34:47.031Z,31.24
2022-08-05T15:41:01.804Z,31.18
2022-08-05T15:45:23.176Z,31.17
2022-08-05T15:50:43.663Z,31.19
2022-08-05T15:56:04.021Z,31.16
2022-08-05T16:01:17.449Z,31.11
2022-08-05T16:06:23.143Z,31.04
2022-08-05T16:11:39.946Z,30.99
2022-08-05T16:16:45.147Z,30.96
2022-08-05T16:21:58.675Z,30.92
2022-08-05T16:27:05.221Z,30.91
2022-08-05T16:32:11.260Z,30.88
2022-08-05T16:38:15.362Z,30.83
2022-08-05T16:42:38.905Z,30.77
2022-08-05T16:47:53.288Z,30.70
2022-08-05T16:53:00.193Z,30.63
2022-08-05T16:58:19.913Z,30.57
2022-08-05T17:03:23.760Z,30.50
2022-08-05T17:08:35.957Z,30.43
2022-08-05T17:13:51.579Z,30.33
2022-08-05T17:19:07.382Z,30.23
2022-08-05T17:24:19.368Z,30.12
2022-08-05T17:29:41.181Z,30.03
2022-08-05T17:34:48.106Z,29.94
2022-08-05T17:39:55.178Z,29.82
2022-08-05T17:45:00.377Z,29.70
2022-08-05T17:50:14.454Z,29.56
2022-08-05T17:55:37.569Z,29.39
2022-08-05T18:00:47.043Z,29.21
2022-08-05T18:05:53.654Z,29.02
2022-08-05T18:10:58.906Z,28.82
2022-08-05T18:16:03.596Z,28.60
2022-08-05T18:21:13.220Z,28.33
2022-08-05T18:26:29.162Z,28.02
2022-08-05T18:31:35.463Z,27.72
2022-08-05T18:36:39.967Z,27.48
2022-08-05T18:41:55.477Z,27.25
2022-08-05T18:47:05.034Z,27.00
2022-08-05T18:52:33.102Z,26.70
2022-08-05T18:57:49.881Z,26.35
2022-08-05T19:03:03.634Z,26.15
2022-08-05T19:08:12.231Z,25.91
2022-08-05T19:13:17.943Z,25.65
2022-08-05T19:18:23.361Z,25.42
2022-08-05T19:24:05.773Z,25.17
2022-08-05T19:28:55.939Z,24.94
2022-08-05T19:34:00.757Z,24.78
2022-08-05T19:39:05.798Z,24.59
2022-08-05T19:44:13.769Z,24.41
2022-08-05T19:49:18.048Z,24.26
2022-08-05T19:54:31.153Z,24.06
2022-08-05T19:59:56.583Z,23.91
2022-08-05T20:05:00.469Z,23.80
2022-08-05T20:10:11.698Z,23.70
2022-08-05T20:15:48.516Z,23.56
2022-08-05T20:20:47.626Z,23.38
2022-08-05T20:25:52.244Z,23.24
2022-08-05T20:30:56.349Z,23.14
2022-08-05T20:36:01.570Z,23.02
2022-08-05T20:41:08.123Z,22.92
2022-08-05T20:46:18.612Z,22.83
2022-08-05T20:51:30.797Z,22.77
2022-08-05T20:56:41.879Z,22.62
2022-08-05T21:01:47.211Z,22.44
2022-08-05T21:06:53.502Z,22.36
2022-08-05T21:12:10.624Z,22.30
2022-08-05T21:17:15.681Z,22.19
2022-08-05T21:22:21.980Z,22.09
2022-08-05T21:27:28.156Z,22.02
2022-08-05T21:32:42.530Z,22.03
2022-08-05T21:37:53.425Z,21.95
2022-08-05T21:42:59.056Z,21.87
2022-08-05T21:48:06.454Z,21.78
2022-08-05T21:53:17.567Z,21.63
2022-08-05T21:58:30.718Z,21.47
2022-08-05T22:03:52.660Z,21.43
2022-08-05T22:08:57.203Z,21.45
2022-08-05T22:14:06.283Z,21.45
2022-08-05T22:20:00.767Z,21.49
2022-08-05T22:25:08.791Z,21.39
2022-08-05T22:30:32.463Z,21.24
2022-08-05T22:35:49.150Z,21.09
2022-08-05T22:40:54.849Z,21.00
2022-08-05T22:45:58.968Z,20.99
2022-08-05T22:51:06.773Z,20.95
2022-08-05T22:56:11.479Z,20.84
2022-08-05T23:01:16.284Z,20.71
2022-08-05T23:06:19.919Z,20.60
2022-08-05T23:11:29.972Z,20.47
2022-08-05T23:16:52.738Z,20.39
2022-08-05T23:21:56.295Z,20.38
2022-08-05T23:26:59.882Z,20.45
2022-08-05T23:32:05.691Z,20.45
2022-08-05T23:37:09.646Z,20.43
2022-08-05T23:42:15.661Z,20.40
2022-08-05T23:47:27.273Z,20.26
2022-08-05T23:52:32.276Z,20.16
2022-08-05T23:57:39.813Z,20.06
